Time;durP1;ratioP1;P1;durP2;ratioP2;P2;SDS_P1;SDS_P2;PMS_P1;PMS_P2;Temp;Humidity;BMP_temperature;BMP_pressure;BME280_temperature;BME280_humidity;BME280_pressure;Samples;Min_cycle;Max_cycle;Signal;HPM_P1;HPM_P2
2023/11/27 05:30:59;;;;;;;0.10;0.10;;;9.90;90.90;;;;;;5716432;23;20050;-78
2023/11/27 05:33:26;;;;;;;0.10;0.10;;;9.90;90.90;;;;;;5010429;28;20095;-77
2023/11/27 05:35:51;;;;;;;0.10;0.10;;;10.00;90.80;;;;;;5037228;28;20025;-78
2023/11/27 05:38:18;;;;;;;0.10;0.10;;;10.00;90.80;;;;;;5019594;28;20022;-78
2023/11/27 05:40:44;;;;;;;0.10;0.10;;;10.00;90.80;;;;;;5026301;28;20018;-77
2023/11/27 05:43:11;;;;;;;0.10;0.10;;;10.00;90.70;;;;;;5039011;28;20022;-78
2023/11/27 05:45:38;;;;;;;0.10;0.10;;;10.00;90.70;;;;;;5038990;28;20127;-78
2023/11/27 05:48:05;;;;;;;0.10;0.10;;;10.00;90.80;;;;;;5039250;28;20025;-78
2023/11/27 05:50:32;;;;;;;0.10;0.10;;;10.00;90.60;;;;;;5031310;28;20030;-77
2023/11/27 05:52:58;;;;;;;0.10;0.10;;;10.00;90.60;;;;;;5039382;28;20056;-78
2023/11/27 05:55:23;;;;;;;0.10;0.10;;;10.00;90.50;;;;;;5021596;28;20079;-76
2023/11/27 05:57:50;;;;;;;0.10;0.10;;;10.10;90.50;;;;;;5039295;28;20030;-77
2023/11/27 06:00:16;;;;;;;0.10;0.10;;;10.00;90.40;;;;;;5039340;28;20088;-77
2023/11/27 06:02:41;;;;;;;0.05;0.05;;;10.00;90.50;;;;;;5018247;28;20029;-77
2023/11/27 06:05:07;;;;;;;0.08;0.08;;;10.10;90.30;;;;;;5015918;28;20405;-77
2023/11/27 06:07:34;;;;;;;0.10;0.10;;;10.10;90.30;;;;;;5038478;28;20036;-78
2023/11/27 06:10:00;;;;;;;0.10;0.10;;;10.10;90.20;;;;;;5021073;28;20087;-78
2023/11/27 06:12:25;;;;;;;0.05;0.05;;;10.10;90.20;;;;;;5038873;28;20061;-77
2023/11/27 06:14:51;;;;;;;0.10;0.10;;;10.20;90.10;;;;;;5020702;28;20389;-76
2023/11/27 06:17:17;;;;;;;0.10;0.10;;;10.20;90.00;;;;;;5021246;28;20033;-77
2023/11/27 06:19:44;;;;;;;0.10;0.10;;;10.10;90.10;;;;;;5019237;28;20116;-78
2023/11/27 06:22:10;;;;;;;0.10;0.10;;;10.10;90.10;;;;;;5038278;28;20053;-75
2023/11/27 06:24:35;;;;;;;0.10;0.10;;;10.10;90.10;;;;;;5038220;28;20037;-76
2023/11/27 06:27:01;;;;;;;0.10;0.10;;;10.10;90.20;;;;;;5038870;28;20029;-76
2023/11/27 06:29:27;;;;;;;0.10;0.10;;;10.10;90.10;;;;;;5038200;28;20872;-76
2023/11/27 06:31:53;;;;;;;0.10;0.10;;;10.10;90.10;;;;;;5038479;28;20052;-76
2023/11/27 06:34:19;;;;;;;0.10;0.10;;;10.10;90.00;;;;;;5020225;28;20042;-76
2023/11/27 06:36:44;;;;;;;0.10;0.10;;;10.00;90.00;;;;;;5038248;28;20103;-76
2023/11/27 06:39:10;;;;;;;0.10;0.10;;;10.00;90.00;;;;;;5038624;28;20028;-76
2023/11/27 06:41:36;;;;;;;0.10;0.10;;;10.00;90.10;;;;;;5020769;28;20028;-76
2023/11/27 06:44:01;;;;;;;0.10;0.10;;;10.00;90.00;;;;;;5016655;28;20118;-77
2023/11/27 06:46:27;;;;;;;0.10;0.10;;;10.00;90.10;;;;;;5025527;28;20496;-77
2023/11/27 06:48:54;;;;;;;0.10;0.10;;;9.90;89.90;;;;;;5020774;28;20064;-76
2023/11/27 06:51:20;;;;;;;0.10;0.10;;;9.90;90.00;;;;;;5015158;28;20025;-76
2023/11/27 06:53:46;;;;;;;0.10;0.10;;;9.90;89.90;;;;;;5019280;28;20025;-76
2023/11/27 06:56:11;;;;;;;0.10;0.10;;;9.90;89.90;;;;;;5038372;28;20018;-77
2023/11/27 06:58:38;;;;;;;0.10;0.10;;;9.90;90.00;;;;;;5037137;28;20378;-77
2023/11/27 07:01:08;;;;;;;0.13;0.13;;;9.90;89.90;;;;;;5028878;28;20021;-78
2023/11/27 07:03:33;;;;;;;0.10;0.10;;;9.90;89.80;;;;;;5037949;28;20070;-77
2023/11/27 07:05:59;;;;;;;0.10;0.10;;;9.80;89.90;;;;;;5025512;28;20108;-77
2023/11/27 07:08:25;;;;;;;0.10;0.10;;;9.80;89.90;;;;;;5036288;28;20037;-77
2023/11/27 07:10:51;;;;;;;0.10;0.10;;;9.80;89.90;;;;;;5024174;28;20528;-77
2023/11/27 07:13:16;;;;;;;0.10;0.10;;;9.80;89.80;;;;;;5024483;28;20022;-77
2023/11/27 07:15:42;;;;;;;0.10;0.10;;;9.80;89.80;;;;;;5030697;28;20029;-77
2023/11/27 07:18:07;;;;;;;0.10;0.10;;;9.80;89.70;;;;;;5020198;28;20041;-77
2023/11/27 07:20:36;;;;;;;0.10;0.10;;;9.80;89.80;;;;;;5027377;28;20013;-77
2023/11/27 07:23:01;;;;;;;0.10;0.10;;;9.80;89.70;;;;;;5030421;28;20109;-76
2023/11/27 07:25:28;;;;;;;0.10;0.10;;;9.80;89.80;;;;;;4998787;28;20053;-77
2023/11/27 07:27:56;;;;;;;0.10;0.10;;;9.80;89.70;;;;;;5025388;28;20053;-79
2023/11/27 07:30:21;;;;;;;0.10;0.10;;;9.80;89.60;;;;;;5017100;28;20385;-79
2023/11/27 07:32:47;;;;;;;0.10;0.10;;;9.90;89.60;;;;;;5018932;28;20034;-79
2023/11/27 07:35:13;;;;;;;0.10;0.10;;;9.90;89.80;;;;;;5036673;28;20029;-79
2023/11/27 07:37:40;;;;;;;0.10;0.10;;;9.90;89.70;;;;;;5037293;28;20030;-79
2023/11/27 07:40:14;;;;;;;0.10;0.10;;;9.90;89.80;;;;;;5037341;28;20108;-79
2023/11/27 07:42:40;;;;;;;0.10;0.10;;;9.90;89.90;;;;;;5018618;28;20060;-79
2023/11/27 07:45:07;;;;;;;0.10;0.10;;;9.90;89.80;;;;;;5037299;28;20029;-79
2023/11/27 07:47:33;;;;;;;0.10;0.10;;;10.00;89.80;;;;;;5036840;28;20017;-79
2023/11/27 07:49:59;;;;;;;0.10;0.10;;;10.00;89.90;;;;;;5035231;28;20026;-79
2023/11/27 07:52:25;;;;;;;0.10;0.10;;;10.00;89.90;;;;;;5036718;28;20029;-79
2023/11/27 07:54:51;;;;;;;0.10;0.10;;;10.00;89.70;;;;;;5032791;28;20029;-79
2023/11/27 07:57:17;;;;;;;0.10;0.10;;;10.00;89.80;;;;;;5036813;28;20022;-79
2023/11/27 07:59:48;;;;;;;0.10;0.10;;;10.00;89.80;;;;;;5019333;28;20075;-79
2023/11/27 08:02:14;;;;;;;0.10;0.10;;;10.00;89.90;;;;;;5036704;28;20021;-79
2023/11/27 08:04:39;;;;;;;0.10;0.10;;;10.10;89.80;;;;;;5036009;28;20405;-79
2023/11/27 08:07:06;;;;;;;0.10;0.10;;;10.10;89.70;;;;;;5026582;28;20030;-79
2023/11/27 08:09:33;;;;;;;0.10;0.10;;;10.20;89.70;;;;;;5020184;28;20033;-79
2023/11/27 08:11:59;;;;;;;0.10;0.10;;;10.20;89.70;;;;;;5029841;28;20036;-79
2023/11/27 08:14:25;;;;;;;0.10;0.10;;;10.20;89.60;;;;;;5033876;28;20025;-79
2023/11/27 08:16:50;;;;;;;0.10;0.10;;;10.20;89.70;;;;;;5010880;28;20021;-79
2023/11/27 08:19:16;;;;;;;0.10;0.10;;;10.20;89.60;;;;;;4997682;28;20026;-78
2023/11/27 08:21:45;;;;;;;0.10;0.10;;;10.20;89.60;;;;;;5015625;28;20028;-79
2023/11/27 08:24:14;;;;;;;0.10;0.10;;;10.20;89.80;;;;;;5009687;28;20490;-79
2023/11/27 08:26:41;;;;;;;0.10;0.10;;;10.30;89.70;;;;;;5016815;28;20117;-79
2023/11/27 08:29:07;;;;;;;0.10;0.10;;;10.30;89.70;;;;;;5000982;28;20665;-79
2023/11/27 08:31:34;;;;;;;0.10;0.10;;;10.30;89.70;;;;;;5017459;28;20046;-79
2023/11/27 08:34:00;;;;;;;0.10;0.10;;;10.30;89.70;;;;;;5020298;28;20060;-79
2023/11/27 08:36:26;;;;;;;0.05;0.05;;;10.30;89.60;;;;;;5020370;28;20030;-79
2023/11/27 08:38:55;;;;;;;0.10;0.10;;;10.30;89.60;;;;;;5007860;28;20139;-79
2023/11/27 08:41:21;;;;;;;0.10;0.10;;;10.30;89.70;;;;;;5001344;28;20081;-79
2023/11/27 08:43:47;;;;;;;0.10;0.10;;;10.40;89.70;;;;;;5030108;28;20034;-79
2023/11/27 08:46:13;;;;;;;0.10;0.10;;;10.40;89.60;;;;;;4998002;28;20022;-78
2023/11/27 08:48:39;;;;;;;0.10;0.10;;;10.30;89.60;;;;;;5026013;28;20030;-78
2023/11/27 08:51:08;;;;;;;0.10;0.10;;;10.40;89.60;;;;;;5016663;28;20157;-79
2023/11/27 08:53:34;;;;;;;0.10;0.10;;;10.40;89.60;;;;;;5024604;28;20584;-79
2023/11/27 08:56:00;;;;;;;0.10;0.10;;;10.40;89.60;;;;;;5021278;28;20099;-78
2023/11/27 08:58:25;;;;;;;0.10;0.10;;;10.40;89.50;;;;;;5025245;28;20018;-79
2023/11/27 09:00:51;;;;;;;0.10;0.10;;;10.40;89.50;;;;;;5020856;28;20029;-79
2023/11/27 09:03:18;;;;;;;0.10;0.10;;;10.40;89.50;;;;;;5025798;28;20105;-79
2023/11/27 09:05:45;;;;;;;0.10;0.10;;;10.40;89.50;;;;;;5030131;28;20036;-79
2023/11/27 09:08:13;;;;;;;0.10;0.10;;;10.50;89.40;;;;;;5001042;28;20029;-79
2023/11/27 09:10:39;;;;;;;0.10;0.10;;;10.40;89.50;;;;;;5028455;28;20021;-79
2023/11/27 09:13:05;;;;;;;0.10;0.10;;;10.50;89.50;;;;;;5000814;28;20077;-79
2023/11/27 09:15:31;;;;;;;0.10;0.10;;;10.50;89.60;;;;;;5034404;28;20373;-78
2023/11/27 09:17:57;;;;;;;0.10;0.10;;;10.50;89.50;;;;;;5034173;28;20025;-79
2023/11/27 09:20:23;;;;;;;0.10;0.10;;;10.50;89.50;;;;;;5013868;28;20029;-79
2023/11/27 09:22:48;;;;;;;0.10;0.10;;;10.50;89.40;;;;;;5015078;28;20505;-79
2023/11/27 09:25:15;;;;;;;0.10;0.10;;;10.60;89.50;;;;;;5004874;28;20064;-79
2023/11/27 09:27:41;;;;;;;0.10;0.10;;;10.60;89.50;;;;;;5023414;28;20032;-79
2023/11/27 09:30:08;;;;;;;0.10;0.10;;;10.60;89.40;;;;;;5015355;28;20030;-79
2023/11/27 09:32:35;;;;;;;0.10;0.10;;;10.70;89.30;;;;;;5014653;28;20076;-79
2023/11/27 09:35:02;;;;;;;0.10;0.10;;;10.70;89.40;;;;;;5020244;28;20068;-79
2023/11/27 09:37:29;;;;;;;0.10;0.10;;;10.70;89.40;;;;;;5015601;28;20022;-79
2023/11/27 09:39:55;;;;;;;0.10;0.10;;;10.70;89.30;;;;;;4999228;28;20026;-79
2023/11/27 09:42:24;;;;;;;0.10;0.10;;;10.70;89.40;;;;;;5016351;28;20040;-79
2023/11/27 09:44:50;;;;;;;0.10;0.10;;;10.80;89.40;;;;;;5021049;28;20402;-79
2023/11/27 09:47:16;;;;;;;0.10;0.10;;;10.80;89.30;;;;;;5018186;28;20034;-79
2023/11/27 09:49:50;;;;;;;0.10;0.10;;;10.80;89.30;;;;;;5021032;28;20029;-79
2023/11/27 09:52:20;;;;;;;0.10;0.10;;;10.80;89.30;;;;;;5022337;28;20109;-79
2023/11/27 09:54:52;;;;;;;0.10;0.10;;;10.80;89.40;;;;;;5012064;28;20052;-79
2023/11/27 09:57:17;;;;;;;0.10;0.10;;;10.80;89.40;;;;;;5004773;28;20030;-79
2023/11/27 09:59:43;;;;;;;0.10;0.10;;;10.80;89.30;;;;;;5023166;28;20018;-79
2023/11/27 10:02:10;;;;;;;0.10;0.10;;;10.80;89.40;;;;;;5014437;28;20489;-79
2023/11/27 10:04:36;;;;;;;0.10;0.10;;;10.80;89.30;;;;;;5020675;28;20036;-79
2023/11/27 10:07:02;;;;;;;0.10;0.10;;;10.90;89.40;;;;;;5027576;28;20089;-79
2023/11/27 10:09:27;;;;;;;0.10;0.10;;;10.80;89.40;;;;;;5027317;28;20037;-79
2023/11/27 10:12:00;;;;;;;0.10;0.10;;;10.90;89.40;;;;;;5018489;28;20048;-79
2023/11/27 10:14:27;;;;;;;0.10;0.10;;;10.90;89.40;;;;;;5018647;28;20030;-79
2023/11/27 10:16:59;;;;;;;0.10;0.10;;;10.90;89.40;;;;;;5030281;28;20038;-79
2023/11/27 10:19:26;;;;;;;0.10;0.10;;;10.90;89.40;;;;;;5026362;28;20776;-79
2023/11/27 10:21:53;;;;;;;0.10;0.10;;;10.90;89.50;;;;;;5021641;28;20056;-79
2023/11/27 10:24:21;;;;;;;0.10;0.10;;;10.90;89.50;;;;;;5018138;28;20033;-79
2023/11/27 10:26:46;;;;;;;0.10;0.10;;;10.90;89.40;;;;;;5026072;28;20091;-79
2023/11/27 10:29:25;;;;;;;0.10;0.10;;;10.90;89.50;;;;;;5017894;28;20042;-79
2023/11/27 10:31:59;;;;;;;0.10;0.10;;;10.90;89.40;;;;;;5031915;28;20055;-79
2023/11/27 10:34:32;;;;;;;0.10;0.10;;;10.90;89.40;;;;;;5031574;28;20028;-79
2023/11/27 10:37:02;;;;;;;;;;;10.90;89.60;;;;;;5026033;28;20088;-79
2023/11/27 10:39:32;;;;;;;0.10;0.10;;;11.00;89.60;;;;;;5036404;28;19988;-79
2023/11/27 10:42:00;;;;;;;0.10;0.10;;;10.90;89.60;;;;;;5017690;28;20493;-79
2023/11/27 10:44:29;;;;;;;0.10;0.10;;;10.90;89.60;;;;;;5003354;28;20034;-79
2023/11/27 10:46:55;;;;;;;0.10;0.10;;;10.90;89.70;;;;;;5031780;28;20040;-79
2023/11/27 10:49:22;;;;;;;0.10;0.10;;;10.90;89.70;;;;;;4999744;28;20402;-79
2023/11/27 10:51:52;;;;;;;0.10;0.10;;;10.90;89.70;;;;;;5021783;28;20025;-79
2023/11/27 10:54:21;;;;;;;0.10;0.10;;;10.90;89.70;;;;;;5002676;28;20021;-79
2023/11/27 10:56:47;;;;;;;0.10;0.10;;;10.90;89.80;;;;;;4999409;28;20507;-79
2023/11/27 10:59:14;;;;;;;0.10;0.10;;;10.90;89.90;;;;;;5017275;28;20018;-79
2023/11/27 11:01:45;;;;;;;0.10;0.10;;;11.00;89.80;;;;;;5028456;28;20029;-79
2023/11/27 11:04:29;;;;;;;0.10;0.10;;;11.00;89.70;;;;;;5022611;28;20123;-79
2023/11/27 11:06:57;;;;;;;0.10;0.10;;;11.00;89.70;;;;;;5031351;28;20156;-80
2023/11/27 11:09:25;;;;;;;0.10;0.10;;;11.10;89.80;;;;;;5031979;28;20084;-82
2023/11/27 11:11:55;;;;;;;0.00;0.00;;;11.10;89.60;;;;;;5014282;28;20025;-79
2023/11/27 11:14:24;;;;;;;0.10;0.10;;;11.20;89.70;;;;;;5035389;28;20246;-79
2023/11/27 11:17:17;;;;;;;0.00;0.00;;;11.10;89.70;;;;;;5025114;28;20069;-80
2023/11/27 11:19:54;;;;;;;;;;;11.20;89.60;;;;;;5020987;28;20025;-80
2023/11/27 11:22:38;;;;;;;0.10;0.10;;;11.20;89.60;;;;;;5027400;28;19948;-79
2023/11/27 11:25:35;;;;;;;0.10;0.10;;;11.30;89.50;;;;;;5030465;28;20029;-78
2023/11/27 11:28:13;;;;;;;0.10;0.10;;;11.40;89.50;;;;;;4996353;28;20060;-78
2023/11/27 11:30:39;;;;;;;0.10;0.10;;;11.50;89.40;;;;;;5036976;28;20041;-78
2023/11/27 11:33:18;;;;;;;0.10;0.10;;;11.60;89.30;;;;;;5037142;28;20411;-79
2023/11/27 11:35:54;;;;;;;0.10;0.10;;;11.70;89.30;;;;;;5037017;28;20018;-78
2023/11/27 11:38:21;;;;;;;0.10;0.10;;;11.60;89.30;;;;;;5024518;28;20033;-79
2023/11/27 11:40:51;;;;;;;0.10;0.10;;;11.60;89.30;;;;;;5008811;28;20032;-79
2023/11/27 11:43:18;;;;;;;0.10;0.10;;;11.70;89.20;;;;;;5019736;28;20022;-79
2023/11/27 11:45:46;;;;;;;0.10;0.10;;;11.70;89.10;;;;;;5037192;28;20120;-79
2023/11/27 11:48:14;;;;;;;0.10;0.10;;;11.80;89.00;;;;;;5036312;28;20028;-79
2023/11/27 11:50:41;;;;;;;0.10;0.10;;;11.70;89.10;;;;;;5037084;28;20028;-79
2023/11/27 11:53:18;;;;;;;0.10;0.10;;;11.70;89.10;;;;;;5035956;28;20053;-78
2023/11/27 11:55:47;;;;;;;0.10;0.10;;;11.60;89.20;;;;;;5014961;28;20045;-78
2023/11/27 11:58:19;;;;;;;0.10;0.10;;;11.60;89.10;;;;;;5015093;28;20026;-79
2023/11/27 12:00:50;;;;;;;0.00;0.00;;;11.60;89.20;;;;;;5017386;28;20053;-79
2023/11/27 12:03:18;;;;;;;0.10;0.10;;;11.60;89.30;;;;;;5035769;28;20056;-79
2023/11/27 12:05:57;;;;;;;0.10;0.10;;;11.50;89.30;;;;;;5018752;28;20022;-78
2023/11/27 12:08:30;;;;;;;0.10;0.10;;;11.60;89.20;;;;;;5037147;28;20029;-78
2023/11/27 12:10:58;;;;;;;0.10;0.10;;;11.60;89.20;;;;;;5036169;28;20048;-79
2023/11/27 12:13:33;;;;;;;0.10;0.10;;;11.60;89.20;;;;;;4999974;28;20030;-79
2023/11/27 12:16:07;;;;;;;0.10;0.10;;;11.60;89.30;;;;;;5001243;28;20501;-79
2023/11/27 12:18:33;;;;;;;;;;;11.60;89.30;;;;;;5019590;28;20036;-79
2023/11/27 12:21:04;;;;;;;0.10;0.10;;;11.80;89.30;;;;;;5036700;28;19988;-78
2023/11/27 12:23:31;;;;;;;0.10;0.10;;;11.80;89.10;;;;;;5036226;28;20090;-78
2023/11/27 12:25:58;;;;;;;0.10;0.10;;;11.80;89.00;;;;;;5036523;28;20018;-79
2023/11/27 12:28:24;;;;;;;0.10;0.10;;;11.80;89.10;;;;;;5033385;28;20018;-79
2023/11/27 12:30:50;;;;;;;0.10;0.10;;;11.90;89.00;;;;;;4999155;28;20096;-79
2023/11/27 12:33:17;;;;;;;0.10;0.10;;;11.90;88.90;;;;;;5020480;28;20022;-82
2023/11/27 12:35:43;;;;;;;0.10;0.10;;;11.90;88.90;;;;;;5036445;28;20108;-79
2023/11/27 12:38:11;;;;;;;0.10;0.10;;;11.90;88.80;;;;;;5036477;28;20057;-79
2023/11/27 12:40:37;;;;;;;0.10;0.10;;;11.90;89.00;;;;;;5036082;28;20029;-78
2023/11/27 12:43:07;;;;;;;0.10;0.10;;;11.90;88.90;;;;;;5029304;28;20481;-78
2023/11/27 12:45:34;;;;;;;0.10;0.10;;;12.00;89.00;;;;;;5009656;28;20520;-79
2023/11/27 12:48:06;;;;;;;0.10;0.10;;;11.90;88.90;;;;;;5016591;28;20022;-78
2023/11/27 12:50:38;;;;;;;0.05;0.05;;;11.90;89.00;;;;;;5016571;28;20508;-78
2023/11/27 12:53:08;;;;;;;0.10;0.10;;;11.80;89.00;;;;;;5031355;28;20026;-78
2023/11/27 12:55:49;;;;;;;0.10;0.10;;;11.80;89.10;;;;;;5022482;28;20064;-78
2023/11/27 12:58:21;;;;;;;0.10;0.10;;;11.80;89.00;;;;;;5014980;28;20647;-78
2023/11/27 13:00:47;;;;;;;0.10;0.10;;;11.90;89.00;;;;;;5016590;28;20018;-78
2023/11/27 13:03:19;;;;;;;0.10;0.10;;;11.90;88.90;;;;;;5005830;28;20029;-78
2023/11/27 13:05:54;;;;;;;0.10;0.10;;;11.90;88.90;;;;;;5015164;28;20025;-79
2023/11/27 13:08:32;;;;;;;0.10;0.10;;;11.90;88.90;;;;;;5020146;28;20026;-78
2023/11/27 13:10:59;;;;;;;0.10;0.10;;;12.00;88.90;;;;;;5034263;28;20021;-79
2023/11/27 13:13:26;;;;;;;0.10;0.10;;;12.00;88.90;;;;;;5018238;28;20040;-79
2023/11/27 13:15:57;;;;;;;0.10;0.10;;;12.00;88.90;;;;;;5018573;28;20029;-78
2023/11/27 13:18:23;;;;;;;0.10;0.10;;;12.00;88.80;;;;;;5037460;28;20079;-78
2023/11/27 13:20:53;;;;;;;0.10;0.10;;;12.20;88.80;;;;;;5026892;28;20022;-78
2023/11/27 13:23:20;;;;;;;0.10;0.10;;;12.30;88.70;;;;;;5002329;28;20682;-78
2023/11/27 13:25:46;;;;;;;0.10;0.10;;;12.40;88.60;;;;;;5020745;28;20024;-78
2023/11/27 13:28:17;;;;;;;0.10;0.10;;;12.60;88.50;;;;;;5023884;28;20026;-79
2023/11/27 13:30:44;;;;;;;0.10;0.10;;;12.60;88.50;;;;;;5025255;28;20053;-79
2023/11/27 13:33:10;;;;;;;0.10;0.10;;;12.70;88.50;;;;;;5039160;28;20029;-78
2023/11/27 13:35:44;;;;;;;0.10;0.10;;;12.80;88.20;;;;;;5022201;28;20511;-79
2023/11/27 13:38:17;;;;;;;0.10;0.10;;;12.80;87.80;;;;;;5025131;28;20054;-78
2023/11/27 13:40:50;;;;;;;0.08;0.08;;;12.80;88.10;;;;;;5039664;28;20022;-79
2023/11/27 13:43:17;;;;;;;;;;;12.80;88.00;;;;;;5022222;28;20030;-79
2023/11/27 13:45:45;;;;;;;0.10;0.10;;;12.80;87.90;;;;;;5022013;28;19905;-78
2023/11/27 13:48:14;;;;;;;0.10;0.10;;;12.90;87.90;;;;;;5017844;28;20030;-79
2023/11/27 13:50:43;;;;;;;0.10;0.10;;;12.80;87.80;;;;;;5018518;28;20030;-79
2023/11/27 13:53:15;;;;;;;0.10;0.10;;;12.80;87.70;;;;;;5020927;28;20065;-79
2023/11/27 13:55:48;;;;;;;0.10;0.10;;;12.70;87.90;;;;;;5038815;28;20473;-79
2023/11/27 13:58:14;;;;;;;0.10;0.10;;;12.60;88.00;;;;;;5038712;28;20017;-79
2023/11/27 14:00:48;;;;;;;0.10;0.10;;;12.50;88.10;;;;;;5037958;28;20403;-75
2023/11/27 14:03:21;;;;;;;0.10;0.10;;;12.50;88.10;;;;;;5026416;28;20033;-75
2023/11/27 14:05:51;;;;;;;0.00;0.00;;;12.50;88.20;;;;;;5023703;28;20030;-75
2023/11/27 14:08:21;;;;;;;0.10;0.10;;;12.50;88.20;;;;;;5021284;28;20022;-75
2023/11/27 14:13:34;;;;;;;0.03;0.03;;;12.60;88.20;;;;;;5037512;28;20044;-75
2023/11/27 14:16:02;;;;;;;0.08;0.08;;;12.60;88.20;;;;;;5019591;28;20014;-75
2023/11/27 14:18:45;;;;;;;0.00;0.00;;;12.70;88.10;;;;;;5026184;28;20025;-75
2023/11/27 14:23:57;;;;;;;0.10;0.10;;;12.70;88.00;;;;;;5017901;28;20040;-75
2023/11/27 14:29:18;;;;;;;0.10;0.10;;;12.70;88.00;;;;;;5022896;28;20041;-75
2023/11/27 14:31:44;;;;;;;0.10;0.10;;;12.80;88.00;;;;;;5028567;28;20038;-75
2023/11/27 14:34:11;;;;;;;0.00;0.00;;;12.80;87.90;;;;;;5021905;28;20465;-75
2023/11/27 14:36:37;;;;;;;0.10;0.10;;;12.70;87.80;;;;;;5020530;28;20433;-75
2023/11/27 14:39:13;;;;;;;0.10;0.10;;;12.50;88.10;;;;;;5038293;28;20763;-75
2023/11/27 14:41:39;;;;;;;0.10;0.10;;;12.50;88.10;;;;;;5035428;28;20469;-75
2023/11/27 14:44:05;;;;;;;0.00;0.00;;;12.50;88.00;;;;;;5037489;28;20025;-75
2023/11/27 14:46:31;;;;;;;0.00;0.00;;;12.50;88.10;;;;;;5037606;28;20503;-75
2023/11/27 14:48:56;;;;;;;0.10;0.10;;;12.40;88.00;;;;;;5036017;28;20037;-74
2023/11/27 14:51:25;;;;;;;0.10;0.10;;;12.30;87.80;;;;;;5037017;28;20099;-75
2023/11/27 14:53:55;;;;;;;0.10;0.10;;;12.30;87.60;;;;;;5037264;28;20015;-76
2023/11/27 14:56:26;;;;;;;0.03;0.03;;;12.20;87.80;;;;;;5020160;28;20397;-75
2023/11/27 14:58:53;;;;;;;0.00;0.00;;;12.00;87.50;;;;;;5035284;28;20048;-74
2023/11/27 15:01:18;;;;;;;0.10;0.10;;;12.00;87.90;;;;;;5016483;28;20025;-75
2023/11/27 15:03:46;;;;;;;0.10;0.10;;;12.00;88.00;;;;;;5037027;28;20096;-74
2023/11/27 15:06:12;;;;;;;0.10;0.10;;;11.90;87.90;;;;;;5035367;28;20076;-74
2023/11/27 15:08:39;;;;;;;0.10;0.10;;;11.90;87.80;;;;;;5037608;28;20026;-74
2023/11/27 15:11:06;;;;;;;0.10;0.10;;;12.00;87.80;;;;;;5036308;28;20029;-75
2023/11/27 15:13:35;;;;;;;0.10;0.10;;;12.10;87.70;;;;;;5036724;28;20010;-74
2023/11/27 15:16:01;;;;;;;0.10;0.10;;;12.40;87.60;;;;;;5037394;28;20079;-75
2023/11/27 15:18:26;;;;;;;0.10;0.10;;;12.60;87.10;;;;;;5019126;28;20021;-75
2023/11/27 15:20:53;;;;;;;0.10;0.10;;;12.80;86.90;;;;;;5037169;28;20026;-75
2023/11/27 15:23:18;;;;;;;0.10;0.10;;;12.80;86.60;;;;;;5037650;28;20440;-75
2023/11/27 15:25:50;;;;;;;0.10;0.10;;;12.70;86.70;;;;;;5037127;28;20033;-74
2023/11/27 15:28:20;;;;;;;0.10;0.10;;;12.50;86.80;;;;;;5034740;28;20071;-74
2023/11/27 15:30:53;;;;;;;0.10;0.10;;;12.40;87.00;;;;;;5020982;28;20046;-74
2023/11/27 15:33:25;;;;;;;;;;;12.30;86.90;;;;;;5021065;28;20480;-74
2023/11/27 15:35:51;;;;;;;0.05;0.05;;;12.20;87.00;;;;;;5020661;28;19909;-74
2023/11/27 15:38:19;;;;;;;0.10;0.10;;;12.10;87.40;;;;;;5034616;28;20026;-74
2023/11/27 15:40:47;;;;;;;0.10;0.10;;;12.00;87.40;;;;;;5026319;28;20033;-74
2023/11/27 15:43:13;;;;;;;0.00;0.00;;;12.00;87.60;;;;;;5033563;28;20087;-75
2023/11/27 15:45:41;;;;;;;0.10;0.10;;;12.00;87.70;;;;;;5029145;28;20029;-74
2023/11/27 15:48:10;;;;;;;0.10;0.10;;;11.90;87.60;;;;;;5031353;28;20025;-74
2023/11/27 15:50:39;;;;;;;0.10;0.10;;;11.90;87.70;;;;;;5030303;28;20036;-74
2023/11/27 15:53:05;;;;;;;0.10;0.10;;;11.90;87.80;;;;;;5033146;28;20048;-74
2023/11/27 15:55:31;;;;;;;0.00;0.00;;;11.90;87.70;;;;;;5031568;28;20041;-74
2023/11/27 15:57:56;;;;;;;0.00;0.00;;;11.80;87.80;;;;;;5031044;28;20025;-74
2023/11/27 16:00:23;;;;;;;0.10;0.10;;;11.80;87.80;;;;;;5032656;28;20052;-74
2023/11/27 16:02:50;;;;;;;0.10;0.10;;;11.80;87.60;;;;;;5028264;28;20021;-74
2023/11/27 16:05:17;;;;;;;0.00;0.00;;;11.80;87.70;;;;;;5026723;28;20044;-74
2023/11/27 16:07:43;;;;;;;0.10;0.10;;;11.70;87.70;;;;;;5033499;28;20055;-74
2023/11/27 16:10:16;;;;;;;0.00;0.00;;;11.60;87.70;;;;;;5032739;28;20038;-74
2023/11/27 16:12:51;;;;;;;0.10;0.10;;;11.60;87.70;;;;;;5032992;28;20033;-74
2023/11/27 16:15:18;;;;;;;0.10;0.10;;;11.60;87.50;;;;;;5033600;28;20088;-74
2023/11/27 16:17:51;;;;;;;0.10;0.10;;;11.40;87.60;;;;;;5035061;28;20080;-74
2023/11/27 16:20:18;;;;;;;0.00;0.00;;;11.40;87.70;;;;;;5035096;28;20481;-74
2023/11/27 16:22:47;;;;;;;0.10;0.10;;;11.30;87.70;;;;;;5013980;28;20029;-74
2023/11/27 16:25:17;;;;;;;0.05;0.05;;;11.30;87.80;;;;;;5035153;28;20029;-74
2023/11/27 16:27:45;;;;;;;0.10;0.10;;;11.30;87.80;;;;;;5034800;28;20200;-73
2023/11/27 16:30:11;;;;;;;0.10;0.10;;;11.30;87.70;;;;;;5034821;28;20022;-74
2023/11/27 16:32:37;;;;;;;0.00;0.00;;;11.30;87.70;;;;;;5033837;28;20036;-74
2023/11/27 16:35:14;;;;;;;0.10;0.10;;;11.30;87.70;;;;;;5034470;28;20009;-74
2023/11/27 16:37:44;;;;;;;0.10;0.10;;;11.30;87.70;;;;;;5033725;28;20021;-74
2023/11/27 16:40:17;;;;;;;0.10;0.10;;;11.40;87.80;;;;;;5032451;28;20021;-74
2023/11/27 16:42:45;;;;;;;0.00;0.00;;;11.40;87.70;;;;;;5033755;28;20076;-75
2023/11/27 16:45:11;;;;;;;0.10;0.10;;;11.30;87.80;;;;;;5034768;28;20515;-75
2023/11/27 16:47:37;;;;;;;0.20;0.10;;;11.30;87.80;;;;;;5034626;28;20026;-74
2023/11/27 16:50:12;;;;;;;0.13;0.13;;;11.30;87.80;;;;;;5034143;28;20025;-75
2023/11/27 16:52:44;;;;;;;0.10;0.10;;;11.30;87.80;;;;;;5018285;28;20044;-75
2023/11/27 16:55:17;;;;;;;0.10;0.10;;;11.20;88.00;;;;;;5037230;28;20028;-75
2023/11/27 16:57:49;;;;;;;0.15;0.10;;;11.20;88.00;;;;;;5036970;28;20032;-74
2023/11/27 17:00:29;;;;;;;0.10;0.10;;;11.30;87.90;;;;;;5014083;28;20034;-75
2023/11/27 17:02:55;;;;;;;0.10;0.10;;;11.20;87.90;;;;;;5028798;28;20079;-75
2023/11/27 17:05:21;;;;;;;0.10;0.10;;;11.20;88.00;;;;;;5032682;28;20021;-75
2023/11/27 17:07:48;;;;;;;0.10;0.10;;;11.20;88.00;;;;;;5037998;28;20484;-75
2023/11/27 17:10:18;;;;;;;0.10;0.10;;;11.10;88.20;;;;;;5038220;28;20022;-75
2023/11/27 17:12:45;;;;;;;0.10;0.10;;;11.10;88.20;;;;;;5037970;28;20033;-75
2023/11/27 17:15:13;;;;;;;0.10;0.10;;;11.10;88.20;;;;;;5034638;28;20104;-75
2023/11/27 17:17:42;;;;;;;0.10;0.10;;;11.20;87.90;;;;;;5037101;28;20026;-75
2023/11/27 17:20:09;;;;;;;0.10;0.10;;;11.10;88.00;;;;;;5036663;28;20020;-75
2023/11/27 17:22:37;;;;;;;0.10;0.10;;;11.10;87.90;;;;;;5037929;28;20034;-75
2023/11/27 17:25:05;;;;;;;0.10;0.10;;;11.10;87.90;;;;;;5037857;28;20032;-75
2023/11/27 17:27:32;;;;;;;0.10;0.10;;;11.00;88.00;;;;;;5011632;28;20048;-75
2023/11/27 17:29:57;;;;;;;0.10;0.10;;;11.00;88.10;;;;;;5038114;28;20021;-75
2023/11/27 17:32:25;;;;;;;0.10;0.10;;;11.00;88.10;;;;;;5037139;28;20128;-76
2023/11/27 17:34:51;;;;;;;0.10;0.10;;;11.00;88.10;;;;;;5017689;28;20041;-75
2023/11/27 17:37:18;;;;;;;0.10;0.10;;;11.00;88.10;;;;;;5037930;28;20032;-75
2023/11/27 17:39:44;;;;;;;0.10;0.10;;;11.00;88.00;;;;;;5038078;28;20072;-76
2023/11/27 17:42:09;;;;;;;0.10;0.10;;;11.10;88.00;;;;;;5038233;28;20021;-76
2023/11/27 17:44:36;;;;;;;0.10;0.10;;;11.10;88.10;;;;;;5037674;28;20036;-76
2023/11/27 17:47:07;;;;;;;0.05;0.05;;;11.20;88.10;;;;;;5038126;28;20167;-75
2023/11/27 17:49:36;;;;;;;0.10;0.10;;;11.20;88.10;;;;;;5035049;28;20075;-76
2023/11/27 17:52:02;;;;;;;0.10;0.10;;;11.20;88.10;;;;;;5019862;28;20044;-75
2023/11/27 17:54:27;;;;;;;0.10;0.10;;;11.20;88.10;;;;;;5037856;28;20036;-76
2023/11/27 17:56:53;;;;;;;0.10;0.10;;;11.10;88.00;;;;;;5016958;28;20025;-79
2023/11/27 17:59:18;;;;;;;0.10;0.10;;;11.10;88.20;;;;;;5037592;28;20467;-77
2023/11/27 18:01:44;;;;;;;0.10;0.10;;;11.10;88.10;;;;;;5016467;28;20033;-79
2023/11/27 18:04:11;;;;;;;0.10;0.10;;;11.10;88.10;;;;;;5035465;28;20060;-88
2023/11/27 18:06:40;;;;;;;0.10;0.10;;;11.10;88.10;;;;;;5036550;28;20036;-82
2023/11/27 18:09:07;;;;;;;0.10;0.10;;;11.10;88.20;;;;;;5015949;28;20032;-80
2023/11/27 18:11:33;;;;;;;0.10;0.10;;;11.20;88.10;;;;;;5035939;28;20025;-79
2023/11/27 18:13:58;;;;;;;0.10;0.10;;;11.20;88.10;;;;;;5036913;28;20017;-82
2023/11/27 18:16:24;;;;;;;0.10;0.10;;;11.20;88.00;;;;;;5016154;28;20034;-82
2023/11/27 18:18:49;;;;;;;0.10;0.10;;;11.20;88.00;;;;;;5018099;28;20044;-77
2023/11/27 18:21:15;;;;;;;0.10;0.10;;;11.20;88.10;;;;;;5023318;28;20037;-77
2023/11/27 18:23:42;;;;;;;0.10;0.10;;;11.20;87.90;;;;;;5038510;28;20022;-79
2023/11/27 18:26:11;;;;;;;0.10;0.10;;;11.20;88.00;;;;;;5042766;28;20029;-80
2023/11/27 18:28:38;;;;;;;0.10;0.10;;;11.20;88.00;;;;;;5035684;28;20033;-85
2023/11/27 18:31:04;;;;;;;0.10;0.10;;;11.20;88.00;;;;;;5019937;28;20107;-82